sensor_id;sensor_type;location;lat;lon;timestamp;pressure;altitude;pressure_sealevel;temperature;humidity
22257;BME280;11297;42.686;23.374;2023-01-25T00:00:15;96108.69;;;6.26;61.97
22257;BME280;11297;42.686;23.374;2023-01-25T00:02:40;96114.19;;;6.35;61.85
22257;BME280;11297;42.686;23.374;2023-01-25T00:05:06;96112.13;;;6.37;61.83
22257;BME280;11297;42.686;23.374;2023-01-25T00:07:32;96111.88;;;6.38;62.03
22257;BME280;11297;42.686;23.374;2023-01-25T00:09:57;96108.28;;;6.39;62.45
22257;BME280;11297;42.686;23.374;2023-01-25T00:12:22;96117.06;;;6.43;62.80
22257;BME280;11297;42.686;23.374;2023-01-25T00:14:48;96117.38;;;6.47;62.32
22257;BME280;11297;42.686;23.374;2023-01-25T00:17:13;96112.25;;;6.52;62.19
22257;BME280;11297;42.686;23.374;2023-01-25T00:19:38;96117.31;;;6.42;62.35
22257;BME280;11297;42.686;23.374;2023-01-25T00:22:04;96116.16;;;6.28;63.43
22257;BME280;11297;42.686;23.374;2023-01-25T00:24:29;96112.00;;;6.22;63.41
22257;BME280;11297;42.686;23.374;2023-01-25T00:26:55;96106.56;;;6.18;63.93
22257;BME280;11297;42.686;23.374;2023-01-25T00:29:20;96109.63;;;6.16;63.48
22257;BME280;11297;42.686;23.374;2023-01-25T00:31:57;96103.91;;;6.14;63.53
22257;BME280;11297;42.686;23.374;2023-01-25T00:36:56;96107.03;;;6.16;63.58
22257;BME280;11297;42.686;23.374;2023-01-25T00:39:22;96112.19;;;6.16;63.34
22257;BME280;11297;42.686;23.374;2023-01-25T00:41:49;96108.56;;;6.17;63.38
22257;BME280;11297;42.686;23.374;2023-01-25T00:44:14;96108.09;;;6.19;62.86
22257;BME280;11297;42.686;23.374;2023-01-25T00:46:40;96105.81;;;6.23;63.29
22257;BME280;11297;42.686;23.374;2023-01-25T00:49:05;96107.91;;;6.26;62.78
22257;BME280;11297;42.686;23.374;2023-01-25T00:51:31;96101.94;;;6.25;62.78
22257;BME280;11297;42.686;23.374;2023-01-25T00:53:57;96106.97;;;6.37;62.55
22257;BME280;11297;42.686;23.374;2023-01-25T00:56:22;96111.38;;;6.41;62.85
22257;BME280;11297;42.686;23.374;2023-01-25T00:58:48;96118.38;;;6.46;62.26
22257;BME280;11297;42.686;23.374;2023-01-25T01:01:13;96116.88;;;6.50;62.53
22257;BME280;11297;42.686;23.374;2023-01-25T01:03:39;96115.84;;;6.51;62.21
22257;BME280;11297;42.686;23.374;2023-01-25T01:06:09;96117.41;;;6.52;62.27
22257;BME280;11297;42.686;23.374;2023-01-25T01:08:37;96119.47;;;6.50;61.95
22257;BME280;11297;42.686;23.374;2023-01-25T01:11:05;96116.06;;;6.44;62.06
22257;BME280;11297;42.686;23.374;2023-01-25T01:13:31;96111.91;;;6.43;62.32
22257;BME280;11297;42.686;23.374;2023-01-25T01:16:00;96100.53;;;6.39;62.36
22257;BME280;11297;42.686;23.374;2023-01-25T01:18:28;96109.53;;;6.37;61.90
22257;BME280;11297;42.686;23.374;2023-01-25T01:20:53;96106.13;;;6.31;62.36
22257;BME280;11297;42.686;23.374;2023-01-25T01:23:19;96104.59;;;6.30;62.20
22257;BME280;11297;42.686;23.374;2023-01-25T01:25:45;96107.09;;;6.25;63.06
22257;BME280;11297;42.686;23.374;2023-01-25T01:28:11;96103.25;;;6.23;62.91
22257;BME280;11297;42.686;23.374;2023-01-25T01:30:37;96101.19;;;6.25;62.76
22257;BME280;11297;42.686;23.374;2023-01-25T01:33:03;96096.91;;;6.09;63.35
22257;BME280;11297;42.686;23.374;2023-01-25T01:35:29;96093.53;;;6.04;63.62
22257;BME280;11297;42.686;23.374;2023-01-25T01:37:54;96095.25;;;5.98;63.22
22257;BME280;11297;42.686;23.374;2023-01-25T01:40:20;96086.28;;;6.01;63.59
22257;BME280;11297;42.686;23.374;2023-01-25T01:43:04;96090.69;;;6.05;63.57
22257;BME280;11297;42.686;23.374;2023-01-25T01:50:59;96083.34;;;6.18;63.45
22257;BME280;11297;42.686;23.374;2023-01-25T01:53:25;96078.69;;;6.20;63.19
22257;BME280;11297;42.686;23.374;2023-01-25T01:55:56;96085.59;;;6.15;63.42
22257;BME280;11297;42.686;23.374;2023-01-25T01:58:23;96080.91;;;6.07;63.50
22257;BME280;11297;42.686;23.374;2023-01-25T02:00:48;96091.22;;;6.07;64.02
22257;BME280;11297;42.686;23.374;2023-01-25T02:03:14;96085.53;;;6.05;64.36
22257;BME280;11297;42.686;23.374;2023-01-25T02:05:52;96082.22;;;6.10;63.77
22257;BME280;11297;42.686;23.374;2023-01-25T02:08:18;96088.16;;;6.10;64.28
22257;BME280;11297;42.686;23.374;2023-01-25T02:10:45;96080.94;;;6.12;63.35
22257;BME280;11297;42.686;23.374;2023-01-25T02:13:12;96085.38;;;6.17;63.65
22257;BME280;11297;42.686;23.374;2023-01-25T02:15:41;96092.09;;;6.18;63.69
22257;BME280;11297;42.686;23.374;2023-01-25T02:18:09;96083.53;;;6.12;62.77
22257;BME280;11297;42.686;23.374;2023-01-25T02:23:30;96077.63;;;6.17;62.86
22257;BME280;11297;42.686;23.374;2023-01-25T02:25:59;96076.88;;;6.21;62.83
22257;BME280;11297;42.686;23.374;2023-01-25T02:30:54;96078.22;;;6.23;62.71
22257;BME280;11297;42.686;23.374;2023-01-25T02:33:25;96082.88;;;6.26;62.95
22257;BME280;11297;42.686;23.374;2023-01-25T02:38:33;96079.78;;;6.24;63.22
22257;BME280;11297;42.686;23.374;2023-01-25T02:41:08;96072.81;;;6.25;63.23
22257;BME280;11297;42.686;23.374;2023-01-25T02:43:36;96072.31;;;6.28;63.41
22257;BME280;11297;42.686;23.374;2023-01-25T02:46:23;96082.16;;;6.31;63.14
22257;BME280;11297;42.686;23.374;2023-01-25T02:48:54;96075.66;;;6.28;62.57
22257;BME280;11297;42.686;23.374;2023-01-25T02:51:24;96066.63;;;6.26;63.14
22257;BME280;11297;42.686;23.374;2023-01-25T02:53:50;96071.78;;;6.26;62.54
22257;BME280;11297;42.686;23.374;2023-01-25T02:56:16;96058.59;;;6.22;63.40
22257;BME280;11297;42.686;23.374;2023-01-25T02:58:42;96072.03;;;6.24;62.72
22257;BME280;11297;42.686;23.374;2023-01-25T03:01:08;96071.00;;;6.25;62.93
22257;BME280;11297;42.686;23.374;2023-01-25T03:03:34;96073.78;;;6.19;62.82
22257;BME280;11297;42.686;23.374;2023-01-25T03:05:59;96080.28;;;6.21;63.37
22257;BME280;11297;42.686;23.374;2023-01-25T03:08:25;96077.06;;;6.10;63.47
22257;BME280;11297;42.686;23.374;2023-01-25T03:10:50;96081.19;;;6.11;63.27
22257;BME280;11297;42.686;23.374;2023-01-25T03:13:17;96083.69;;;6.01;63.30
22257;BME280;11297;42.686;23.374;2023-01-25T03:15:42;96084.66;;;5.95;63.75
22257;BME280;11297;42.686;23.374;2023-01-25T03:18:08;96078.53;;;5.74;64.56
22257;BME280;11297;42.686;23.374;2023-01-25T03:20:33;96082.81;;;5.69;64.88
22257;BME280;11297;42.686;23.374;2023-01-25T03:22:58;96072.09;;;5.56;65.16
22257;BME280;11297;42.686;23.374;2023-01-25T03:25:24;96081.03;;;5.48;65.90
22257;BME280;11297;42.686;23.374;2023-01-25T03:27:49;96076.44;;;5.50;66.05
22257;BME280;11297;42.686;23.374;2023-01-25T03:30:14;96068.41;;;5.47;65.91
22257;BME280;11297;42.686;23.374;2023-01-25T03:32:40;96079.03;;;5.50;65.32
22257;BME280;11297;42.686;23.374;2023-01-25T03:35:05;96080.16;;;5.59;65.06
22257;BME280;11297;42.686;23.374;2023-01-25T03:37:31;96070.31;;;5.56;65.66
22257;BME280;11297;42.686;23.374;2023-01-25T03:39:56;96085.22;;;5.54;65.79
22257;BME280;11297;42.686;23.374;2023-01-25T03:42:22;96082.97;;;5.58;65.15
22257;BME280;11297;42.686;23.374;2023-01-25T03:44:48;96070.91;;;5.63;64.63
22257;BME280;11297;42.686;23.374;2023-01-25T03:47:14;96078.75;;;5.73;64.68
22257;BME280;11297;42.686;23.374;2023-01-25T03:49:40;96071.88;;;5.78;64.39
22257;BME280;11297;42.686;23.374;2023-01-25T03:52:06;96077.34;;;5.87;63.97
22257;BME280;11297;42.686;23.374;2023-01-25T03:54:32;96072.78;;;5.94;63.55
22257;BME280;11297;42.686;23.374;2023-01-25T03:56:57;96068.47;;;5.99;63.53
22257;BME280;11297;42.686;23.374;2023-01-25T03:59:23;96068.22;;;6.01;63.33
22257;BME280;11297;42.686;23.374;2023-01-25T04:01:48;96062.34;;;6.05;63.44
22257;BME280;11297;42.686;23.374;2023-01-25T04:04:13;96052.19;;;5.99;62.87
22257;BME280;11297;42.686;23.374;2023-01-25T04:06:39;96055.56;;;5.99;62.92
22257;BME280;11297;42.686;23.374;2023-01-25T04:09:05;96056.56;;;5.93;63.32
22257;BME280;11297;42.686;23.374;2023-01-25T04:11:31;96055.69;;;5.83;63.22
22257;BME280;11297;42.686;23.374;2023-01-25T04:13:57;96061.13;;;5.86;63.62
22257;BME280;11297;42.686;23.374;2023-01-25T04:16:22;96060.34;;;5.86;63.61
22257;BME280;11297;42.686;23.374;2023-01-25T04:18:47;96053.28;;;5.76;63.45
22257;BME280;11297;42.686;23.374;2023-01-25T04:21:13;96056.69;;;5.82;63.64
22257;BME280;11297;42.686;23.374;2023-01-25T04:23:38;96059.00;;;5.78;63.21
22257;BME280;11297;42.686;23.374;2023-01-25T04:26:06;96050.47;;;5.78;63.09
22257;BME280;11297;42.686;23.374;2023-01-25T04:28:33;96051.53;;;5.82;63.30
22257;BME280;11297;42.686;23.374;2023-01-25T04:30:58;96061.34;;;5.85;62.94
22257;BME280;11297;42.686;23.374;2023-01-25T04:33:24;96056.72;;;5.87;62.72
22257;BME280;11297;42.686;23.374;2023-01-25T04:35:50;96064.22;;;5.88;62.55
22257;BME280;11297;42.686;23.374;2023-01-25T04:38:15;96067.28;;;5.85;62.25
22257;BME280;11297;42.686;23.374;2023-01-25T04:40:41;96069.88;;;5.85;62.14
22257;BME280;11297;42.686;23.374;2023-01-25T04:43:07;96043.38;;;5.68;61.95
22257;BME280;11297;42.686;23.374;2023-01-25T04:45:33;96075.75;;;5.81;62.43
22257;BME280;11297;42.686;23.374;2023-01-25T04:48:04;96073.66;;;5.78;62.66
22257;BME280;11297;42.686;23.374;2023-01-25T04:50:34;96072.00;;;5.72;62.91
22257;BME280;11297;42.686;23.374;2023-01-25T04:52:59;96068.75;;;5.76;62.84
22257;BME280;11297;42.686;23.374;2023-01-25T04:55:25;96078.56;;;5.79;62.26
22257;BME280;11297;42.686;23.374;2023-01-25T04:57:50;96066.16;;;5.76;62.61
22257;BME280;11297;42.686;23.374;2023-01-25T05:00:16;96073.66;;;5.78;62.38
22257;BME280;11297;42.686;23.374;2023-01-25T05:02:42;96071.00;;;5.73;62.44
22257;BME280;11297;42.686;23.374;2023-01-25T05:05:08;96074.59;;;5.72;62.23
22257;BME280;11297;42.686;23.374;2023-01-25T05:07:34;96070.09;;;5.58;62.94
22257;BME280;11297;42.686;23.374;2023-01-25T05:09:59;96067.03;;;5.61;62.43
22257;BME280;11297;42.686;23.374;2023-01-25T05:12:24;96062.16;;;5.64;62.62
22257;BME280;11297;42.686;23.374;2023-01-25T05:14:50;96054.38;;;5.59;62.50
22257;BME280;11297;42.686;23.374;2023-01-25T05:17:15;96064.25;;;5.67;62.34
22257;BME280;11297;42.686;23.374;2023-01-25T05:19:41;96059.63;;;5.69;62.79
22257;BME280;11297;42.686;23.374;2023-01-25T05:22:06;96059.28;;;5.61;63.13
22257;BME280;11297;42.686;23.374;2023-01-25T05:24:35;96055.44;;;5.63;62.60
22257;BME280;11297;42.686;23.374;2023-01-25T05:27:02;96053.91;;;5.62;62.60
22257;BME280;11297;42.686;23.374;2023-01-25T05:29:29;96056.47;;;5.62;62.34
22257;BME280;11297;42.686;23.374;2023-01-25T05:31:56;96060.91;;;5.67;62.74
22257;BME280;11297;42.686;23.374;2023-01-25T05:34:21;96064.00;;;5.68;63.07
22257;BME280;11297;42.686;23.374;2023-01-25T05:36:47;96060.94;;;5.71;62.65
22257;BME280;11297;42.686;23.374;2023-01-25T05:39:12;96064.88;;;5.74;62.57
22257;BME280;11297;42.686;23.374;2023-01-25T05:41:37;96063.66;;;5.60;62.54
22257;BME280;11297;42.686;23.374;2023-01-25T05:44:03;96063.22;;;5.68;62.34
22257;BME280;11297;42.686;23.374;2023-01-25T05:46:29;96070.16;;;5.68;62.19
22257;BME280;11297;42.686;23.374;2023-01-25T05:48:54;96075.09;;;5.69;61.72
22257;BME280;11297;42.686;23.374;2023-01-25T05:51:20;96074.50;;;5.62;61.65
22257;BME280;11297;42.686;23.374;2023-01-25T05:53:45;96080.22;;;5.69;61.26
22257;BME280;11297;42.686;23.374;2023-01-25T05:56:10;96077.41;;;5.70;60.96
22257;BME280;11297;42.686;23.374;2023-01-25T05:58:36;96075.94;;;5.74;60.94
22257;BME280;11297;42.686;23.374;2023-01-25T06:01:04;96081.28;;;5.68;60.74
22257;BME280;11297;42.686;23.374;2023-01-25T06:03:30;96075.41;;;5.72;61.18
22257;BME280;11297;42.686;23.374;2023-01-25T06:05:59;96075.09;;;5.69;61.17
22257;BME280;11297;42.686;23.374;2023-01-25T06:08:27;96073.44;;;5.58;61.46
22257;BME280;11297;42.686;23.374;2023-01-25T06:10:52;96075.03;;;5.64;61.35
22257;BME280;11297;42.686;23.374;2023-01-25T06:13:17;96081.81;;;5.70;61.04
22257;BME280;11297;42.686;23.374;2023-01-25T06:15:51;96082.94;;;5.79;60.38
22257;BME280;11297;42.686;23.374;2023-01-25T06:18:17;96087.38;;;5.83;60.48
22257;BME280;11297;42.686;23.374;2023-01-25T06:20:42;96084.59;;;5.90;60.40
22257;BME280;11297;42.686;23.374;2023-01-25T06:23:08;96084.69;;;6.00;59.84
22257;BME280;11297;42.686;23.374;2023-01-25T06:25:33;96082.41;;;6.03;59.57
22257;BME280;11297;42.686;23.374;2023-01-25T06:27:58;96077.34;;;6.13;59.50
22257;BME280;11297;42.686;23.374;2023-01-25T06:30:24;96075.09;;;6.21;59.03
22257;BME280;11297;42.686;23.374;2023-01-25T06:32:49;96082.84;;;6.21;59.58
22257;BME280;11297;42.686;23.374;2023-01-25T06:35:15;96083.41;;;6.28;59.09
22257;BME280;11297;42.686;23.374;2023-01-25T06:37:40;96076.38;;;6.19;59.59
22257;BME280;11297;42.686;23.374;2023-01-25T06:40:06;96075.78;;;6.12;59.52
22257;BME280;11297;42.686;23.374;2023-01-25T06:42:31;96082.91;;;6.00;59.71
22257;BME280;11297;42.686;23.374;2023-01-25T06:44:56;96075.81;;;5.86;60.38
22257;BME280;11297;42.686;23.374;2023-01-25T06:47:22;96076.22;;;5.78;60.58
22257;BME280;11297;42.686;23.374;2023-01-25T06:49:47;96075.56;;;5.66;61.15
22257;BME280;11297;42.686;23.374;2023-01-25T06:52:13;96072.50;;;5.69;61.26
22257;BME280;11297;42.686;23.374;2023-01-25T06:54:38;96078.75;;;5.73;61.26
22257;BME280;11297;42.686;23.374;2023-01-25T06:57:03;96073.53;;;5.68;61.19
22257;BME280;11297;42.686;23.374;2023-01-25T06:59:29;96079.28;;;5.75;61.17
22257;BME280;11297;42.686;23.374;2023-01-25T07:01:54;96082.22;;;5.83;61.04
22257;BME280;11297;42.686;23.374;2023-01-25T07:04:20;96086.91;;;5.86;61.39
22257;BME280;11297;42.686;23.374;2023-01-25T07:06:45;96085.03;;;5.82;61.18
22257;BME280;11297;42.686;23.374;2023-01-25T07:09:12;96079.13;;;5.81;61.07
22257;BME280;11297;42.686;23.374;2023-01-25T07:11:38;96072.19;;;5.61;61.12
22257;BME280;11297;42.686;23.374;2023-01-25T07:14:04;96071.72;;;5.68;61.17
22257;BME280;11297;42.686;23.374;2023-01-25T07:16:30;96070.97;;;5.68;61.54
22257;BME280;11297;42.686;23.374;2023-01-25T07:19:02;96075.63;;;5.71;61.00
22257;BME280;11297;42.686;23.374;2023-01-25T07:21:27;96076.53;;;5.60;61.53
22257;BME280;11297;42.686;23.374;2023-01-25T07:23:53;96079.19;;;5.65;61.53
22257;BME280;11297;42.686;23.374;2023-01-25T07:26:24;96094.03;;;5.58;60.70
22257;BME280;11297;42.686;23.374;2023-01-25T07:28:50;96080.06;;;5.54;60.25
22257;BME280;11297;42.686;23.374;2023-01-25T07:31:17;96093.34;;;5.68;64.51
22257;BME280;11297;42.686;23.374;2023-01-25T07:33:43;96085.78;;;5.56;60.91
22257;BME280;11297;42.686;23.374;2023-01-25T07:36:11;96091.91;;;5.50;60.79
22257;BME280;11297;42.686;23.374;2023-01-25T07:38:37;96100.09;;;5.47;61.26
22257;BME280;11297;42.686;23.374;2023-01-25T07:41:02;96085.94;;;5.50;61.53
22257;BME280;11297;42.686;23.374;2023-01-25T07:43:29;96088.88;;;5.58;61.25
22257;BME280;11297;42.686;23.374;2023-01-25T07:46:09;96087.88;;;5.59;61.43
22257;BME280;11297;42.686;23.374;2023-01-25T07:48:39;96096.34;;;5.55;61.37
22257;BME280;11297;42.686;23.374;2023-01-25T07:51:07;96099.06;;;5.48;61.76
22257;BME280;11297;42.686;23.374;2023-01-25T07:53:41;96099.50;;;5.40;61.86
22257;BME280;11297;42.686;23.374;2023-01-25T07:56:08;96098.50;;;5.41;62.30
22257;BME280;11297;42.686;23.374;2023-01-25T07:58:34;96102.00;;;5.57;61.98
22257;BME280;11297;42.686;23.374;2023-01-25T08:01:11;96092.00;;;5.60;61.38
22257;BME280;11297;42.686;23.374;2023-01-25T08:03:37;96095.66;;;5.64;61.96
22257;BME280;11297;42.686;23.374;2023-01-25T08:06:03;96103.66;;;5.68;61.58
22257;BME280;11297;42.686;23.374;2023-01-25T08:08:33;96098.84;;;5.71;61.37
22257;BME280;11297;42.686;23.374;2023-01-25T08:11:05;96094.31;;;5.62;61.75
22257;BME280;11297;42.686;23.374;2023-01-25T08:13:31;96099.25;;;5.42;62.26
22257;BME280;11297;42.686;23.374;2023-01-25T08:15:56;96093.69;;;5.71;66.15
22257;BME280;11297;42.686;23.374;2023-01-25T08:18:22;96092.56;;;5.62;63.43
22257;BME280;11297;42.686;23.374;2023-01-25T08:20:47;96094.16;;;5.47;63.43
22257;BME280;11297;42.686;23.374;2023-01-25T08:23:13;96098.84;;;5.50;62.99
22257;BME280;11297;42.686;23.374;2023-01-25T08:25:38;96093.38;;;5.46;62.68
22257;BME280;11297;42.686;23.374;2023-01-25T08:28:04;96100.50;;;5.39;63.13
22257;BME280;11297;42.686;23.374;2023-01-25T08:30:30;96090.16;;;5.34;63.46
22257;BME280;11297;42.686;23.374;2023-01-25T08:32:55;96086.63;;;5.40;63.59
22257;BME280;11297;42.686;23.374;2023-01-25T08:35:20;96084.69;;;5.52;63.21
22257;BME280;11297;42.686;23.374;2023-01-25T08:37:46;96091.28;;;5.43;63.64
22257;BME280;11297;42.686;23.374;2023-01-25T08:40:11;96088.03;;;5.53;63.33
22257;BME280;11297;42.686;23.374;2023-01-25T08:42:38;96095.47;;;5.49;64.18
22257;BME280;11297;42.686;23.374;2023-01-25T08:45:04;96086.88;;;5.39;64.05
22257;BME280;11297;42.686;23.374;2023-01-25T08:47:30;96090.09;;;5.29;64.47
22257;BME280;11297;42.686;23.374;2023-01-25T08:49:55;96077.66;;;5.43;64.74
22257;BME280;11297;42.686;23.374;2023-01-25T08:52:20;96074.84;;;5.44;65.02
22257;BME280;11297;42.686;23.374;2023-01-25T08:54:46;96079.00;;;5.29;64.90
22257;BME280;11297;42.686;23.374;2023-01-25T08:57:12;96074.91;;;5.07;66.08
22257;BME280;11297;42.686;23.374;2023-01-25T08:59:37;96092.84;;;5.02;66.63
22257;BME280;11297;42.686;23.374;2023-01-25T09:02:02;96084.16;;;5.08;66.65
22257;BME280;11297;42.686;23.374;2023-01-25T09:04:28;96091.34;;;5.06;66.60
22257;BME280;11297;42.686;23.374;2023-01-25T09:06:54;96092.50;;;5.15;66.63
22257;BME280;11297;42.686;23.374;2023-01-25T09:09:20;96090.16;;;5.13;66.42
22257;BME280;11297;42.686;23.374;2023-01-25T09:11:47;96076.97;;;5.10;66.86
22257;BME280;11297;42.686;23.374;2023-01-25T09:14:12;96080.63;;;5.14;67.59
22257;BME280;11297;42.686;23.374;2023-01-25T09:16:38;96077.06;;;5.15;67.08
22257;BME280;11297;42.686;23.374;2023-01-25T09:19:04;96078.34;;;5.17;67.52
22257;BME280;11297;42.686;23.374;2023-01-25T09:21:29;96073.53;;;5.21;67.39
22257;BME280;11297;42.686;23.374;2023-01-25T09:23:55;96071.03;;;5.30;67.50
22257;BME280;11297;42.686;23.374;2023-01-25T09:26:21;96059.78;;;5.36;67.06
22257;BME280;11297;42.686;23.374;2023-01-25T09:28:48;96068.84;;;5.39;66.43
22257;BME280;11297;42.686;23.374;2023-01-25T09:31:14;96054.03;;;5.51;66.56
22257;BME280;11297;42.686;23.374;2023-01-25T09:33:41;96053.25;;;5.50;66.87
22257;BME280;11297;42.686;23.374;2023-01-25T09:36:07;96050.38;;;5.47;66.63
22257;BME280;11297;42.686;23.374;2023-01-25T09:38:33;96051.16;;;5.47;66.55
22257;BME280;11297;42.686;23.374;2023-01-25T09:54:52;96021.75;;;5.43;64.03
22257;BME280;11297;42.686;23.374;2023-01-25T09:57:26;96021.84;;;5.53;63.89
22257;BME280;11297;42.686;23.374;2023-01-25T09:59:54;96009.16;;;5.47;63.68
22257;BME280;11297;42.686;23.374;2023-01-25T10:02:45;96017.50;;;5.32;63.75
22257;BME280;11297;42.686;23.374;2023-01-25T10:05:24;95996.34;;;5.52;63.31
22257;BME280;11297;42.686;23.374;2023-01-25T10:13:00;95999.81;;;5.41;62.06
22257;BME280;11297;42.686;23.374;2023-01-25T10:15:35;95994.56;;;5.57;61.86
22257;BME280;11297;42.686;23.374;2023-01-25T10:18:36;95984.09;;;5.64;61.34
22257;BME280;11297;42.686;23.374;2023-01-25T10:21:10;95973.72;;;5.59;61.39
22257;BME280;11297;42.686;23.374;2023-01-25T10:28:58;95971.91;;;5.85;60.88
22257;BME280;11297;42.686;23.374;2023-01-25T10:34:19;95969.16;;;5.97;61.15
22257;BME280;11297;42.686;23.374;2023-01-25T10:36:51;95961.53;;;6.07;60.88
22257;BME280;11297;42.686;23.374;2023-01-25T10:39:18;95962.94;;;5.93;60.24
22257;BME280;11297;42.686;23.374;2023-01-25T10:41:54;95951.34;;;5.90;60.82
22257;BME280;11297;42.686;23.374;2023-01-25T10:44:24;95949.16;;;6.09;59.75
22257;BME280;11297;42.686;23.374;2023-01-25T10:46:55;95941.75;;;6.17;60.36
22257;BME280;11297;42.686;23.374;2023-01-25T10:54:39;95950.50;;;6.21;58.43
22257;BME280;11297;42.686;23.374;2023-01-25T10:57:12;95947.06;;;6.06;58.25
22257;BME280;11297;42.686;23.374;2023-01-25T10:59:38;95929.09;;;6.20;58.69
22257;BME280;11297;42.686;23.374;2023-01-25T11:05:23;95923.53;;;6.33;59.01
22257;BME280;11297;42.686;23.374;2023-01-25T11:07:48;95919.31;;;6.22;59.01
22257;BME280;11297;42.686;23.374;2023-01-25T11:13:26;95917.34;;;6.39;58.21
22257;BME280;11297;42.686;23.374;2023-01-25T11:18:30;95912.72;;;6.41;57.95
22257;BME280;11297;42.686;23.374;2023-01-25T11:21:13;95897.72;;;6.33;59.01
22257;BME280;11297;42.686;23.374;2023-01-25T11:26:36;95895.41;;;6.37;59.11
22257;BME280;11297;42.686;23.374;2023-01-25T11:29:12;95903.91;;;6.32;59.10
22257;BME280;11297;42.686;23.374;2023-01-25T11:31:38;95898.25;;;6.40;58.87
22257;BME280;11297;42.686;23.374;2023-01-25T11:34:12;95896.50;;;6.51;59.02
22257;BME280;11297;42.686;23.374;2023-01-25T11:39:44;95902.88;;;6.33;58.60
22257;BME280;11297;42.686;23.374;2023-01-25T11:45:15;95884.84;;;6.38;58.94
22257;BME280;11297;42.686;23.374;2023-01-25T11:51:05;95858.72;;;6.30;59.36
22257;BME280;11297;42.686;23.374;2023-01-25T11:56:45;95861.06;;;6.26;58.65
22257;BME280;11297;42.686;23.374;2023-01-25T12:02:06;95855.34;;;6.19;59.00
22257;BME280;11297;42.686;23.374;2023-01-25T12:10:39;95853.03;;;6.23;59.84
22257;BME280;11297;42.686;23.374;2023-01-25T12:33:08;95824.56;;;6.03;61.30
22257;BME280;11297;42.686;23.374;2023-01-25T12:35:36;95833.75;;;5.84;60.26
22257;BME280;11297;42.686;23.374;2023-01-25T12:38:14;95826.28;;;5.83;60.82
22257;BME280;11297;42.686;23.374;2023-01-25T12:40:49;95825.81;;;5.96;60.33
22257;BME280;11297;42.686;23.374;2023-01-25T12:43:30;95811.91;;;5.92;60.86
22257;BME280;11297;42.686;23.374;2023-01-25T12:45:58;95818.88;;;5.96;60.97
22257;BME280;11297;42.686;23.374;2023-01-25T12:48:31;95827.69;;;6.05;60.41
22257;BME280;11297;42.686;23.374;2023-01-25T12:51:01;95808.06;;;5.99;59.49
22257;BME280;11297;42.686;23.374;2023-01-25T12:53:40;95823.28;;;6.06;59.70
22257;BME280;11297;42.686;23.374;2023-01-25T12:56:09;95804.75;;;6.14;59.26
22257;BME280;11297;42.686;23.374;2023-01-25T12:58:44;95823.34;;;6.16;59.14
22257;BME280;11297;42.686;23.374;2023-01-25T13:01:34;95817.13;;;6.12;58.89
22257;BME280;11297;42.686;23.374;2023-01-25T13:07:15;95797.41;;;12.37;100.00
22257;BME280;11297;42.686;23.374;2023-01-25T13:12:10;95793.03;;;14.33;92.76
22257;BME280;11297;42.686;23.374;2023-01-25T13:14:38;95785.75;;;15.62;81.35
22257;BME280;11297;42.686;23.374;2023-01-25T13:17:31;95788.13;;;16.46;74.19
22257;BME280;11297;42.686;23.374;2023-01-25T13:19:58;95778.94;;;14.60;42.68
22257;BME280;11297;42.686;23.374;2023-01-25T13:25:23;95785.34;;;11.88;43.86
22257;BME280;11297;42.686;23.374;2023-01-25T13:27:49;95782.00;;;10.69;45.02
22257;BME280;11297;42.686;23.374;2023-01-25T13:35:28;95759.84;;;8.17;51.83
22257;BME280;11297;42.686;23.374;2023-01-25T13:40:41;95791.03;;;7.48;54.86
22257;BME280;11297;42.686;23.374;2023-01-25T13:43:20;95792.34;;;7.06;56.62
22257;BME280;11297;42.686;23.374;2023-01-25T13:45:51;95801.38;;;6.84;57.92
22257;BME280;11297;42.686;23.374;2023-01-25T13:48:19;95791.47;;;6.46;58.80
22257;BME280;11297;42.686;23.374;2023-01-25T13:50:50;95797.25;;;6.02;60.41
22257;BME280;11297;42.686;23.374;2023-01-25T13:53:20;95812.97;;;6.01;61.17
22257;BME280;11297;42.686;23.374;2023-01-25T13:55:56;95800.25;;;5.84;62.06
22257;BME280;11297;42.686;23.374;2023-01-25T13:58:31;95794.03;;;5.80;62.20
22257;BME280;11297;42.686;23.374;2023-01-25T14:01:02;95804.59;;;5.79;62.16
22257;BME280;11297;42.686;23.374;2023-01-25T14:03:39;95812.78;;;5.71;62.46
22257;BME280;11297;42.686;23.374;2023-01-25T14:06:06;95801.88;;;5.59;62.80
22257;BME280;11297;42.686;23.374;2023-01-25T14:08:32;95807.81;;;5.60;62.49
22257;BME280;11297;42.686;23.374;2023-01-25T14:10:58;95812.94;;;5.60;62.33
22257;BME280;11297;42.686;23.374;2023-01-25T14:13:23;95809.47;;;5.39;62.95
22257;BME280;11297;42.686;23.374;2023-01-25T14:15:57;95802.13;;;5.21;63.58
22257;BME280;11297;42.686;23.374;2023-01-25T14:18:33;95804.03;;;5.36;63.95
22257;BME280;11297;42.686;23.374;2023-01-25T14:21:25;95803.59;;;5.13;64.08
22257;BME280;11297;42.686;23.374;2023-01-25T14:23:50;95803.84;;;5.11;64.07
22257;BME280;11297;42.686;23.374;2023-01-25T14:26:26;95800.25;;;5.12;64.68
22257;BME280;11297;42.686;23.374;2023-01-25T14:28:54;95804.06;;;5.10;64.63
22257;BME280;11297;42.686;23.374;2023-01-25T14:31:25;95801.97;;;5.02;64.72
22257;BME280;11297;42.686;23.374;2023-01-25T14:33:52;95797.28;;;4.94;65.64
22257;BME280;11297;42.686;23.374;2023-01-25T14:36:28;95788.59;;;4.73;65.82
22257;BME280;11297;42.686;23.374;2023-01-25T14:38:55;95806.91;;;4.77;65.82
22257;BME280;11297;42.686;23.374;2023-01-25T14:41:24;95786.50;;;4.71;66.81
22257;BME280;11297;42.686;23.374;2023-01-25T14:43:55;95782.16;;;4.71;66.66
22257;BME280;11297;42.686;23.374;2023-01-25T14:46:34;95793.59;;;4.59;67.00
22257;BME280;11297;42.686;23.374;2023-01-25T14:49:19;95800.09;;;4.66;66.84
22257;BME280;11297;42.686;23.374;2023-01-25T14:52:04;95790.69;;;4.50;67.35
22257;BME280;11297;42.686;23.374;2023-01-25T14:54:35;95784.00;;;4.49;67.47
22257;BME280;11297;42.686;23.374;2023-01-25T14:57:03;95796.22;;;4.37;67.63
22257;BME280;11297;42.686;23.374;2023-01-25T14:59:31;95791.66;;;4.44;67.40
22257;BME280;11297;42.686;23.374;2023-01-25T15:02:12;95801.41;;;4.21;67.96